Time;durP1;ratioP1;P1;durP2;ratioP2;P2;SDS_P1;SDS_P2;PMS_P1;PMS_P2;Temp;Humidity;BMP_temperature;BMP_pressure;BME280_temperature;BME280_humidity;BME280_pressure;Samples;Min_cycle;Max_cycle;Signal;HPM_P1;HPM_P2
2023/10/18 00:00:28;;;;;;;10.10;6.47;;;;;;;10.95;69.21;94774.28;4175003;28;21087;-68
2023/10/18 00:02:32;;;;;;;9.85;6.97;;;;;;;11.00;68.86;94781.66;4194564;28;20097;-70
2023/10/18 00:04:34;;;;;;;7.88;7.18;;;;;;;10.95;68.85;94774.28;4209560;28;20067;-70
2023/10/18 00:06:36;;;;;;;9.63;6.50;;;;;;;10.97;69.11;94771.47;4208814;28;20079;-69
2023/10/18 00:08:39;;;;;;;8.35;6.85;;;;;;;10.97;69.43;94768.84;4210306;28;20058;-72
2023/10/18 00:10:41;;;;;;;8.47;7.20;;;;;;;10.99;69.52;94772.97;4190344;28;20508;-70
2023/10/18 00:12:45;;;;;;;12.20;7.97;;;;;;;10.99;69.45;94772.97;4205976;28;20401;-72
2023/10/18 00:14:51;;;;;;;8.32;7.43;;;;;;;10.97;69.44;94772.31;4189940;28;20079;-72
2023/10/18 00:16:53;;;;;;;8.57;7.35;;;;;;;10.97;69.25;94771.47;4210032;28;20179;-69
2023/10/18 00:18:55;;;;;;;9.90;7.78;;;;;;;11.00;69.51;94771.16;4210076;28;20480;-68
2023/10/18 00:20:59;;;;;;;8.05;7.30;;;;;;;11.02;69.62;94770.03;4208221;28;20108;-69
2023/10/18 00:23:02;;;;;;;9.77;8.07;;;;;;;11.07;69.15;94764.28;4181951;28;20470;-70
2023/10/18 00:25:06;;;;;;;9.45;7.75;;;;;;;10.97;69.27;94764.44;4207689;28;20082;-72
2023/10/18 00:27:09;;;;;;;;;;;;;;;10.92;69.23;94766.72;4207717;28;20133;-70
2023/10/18 00:29:12;;;;;;;10.18;7.57;;;;;;;10.97;69.68;94756.59;4186531;28;19967;-71
2023/10/18 00:31:17;;;;;;;11.55;7.95;;;;;;;10.99;69.14;94762.50;4207563;28;20496;-70
2023/10/18 00:33:20;;;;;;;10.25;8.38;;;;;;;11.00;69.14;94752.81;4206875;28;20141;-70
2023/10/18 00:35:31;;;;;;;9.48;8.55;;;;;;;11.00;69.82;94751.00;4210824;28;20051;-71
2023/10/18 00:37:33;;;;;;;8.35;7.53;;;;;;;11.05;69.75;94756.59;4211673;28;20052;-71
2023/10/18 00:39:36;;;;;;;8.85;7.70;;;;;;;11.04;68.93;94747.09;4211420;28;20050;-70
2023/10/18 00:41:43;;;;;;;10.90;8.48;;;;;;;10.84;69.00;94754.41;4211039;28;20580;-71
2023/10/18 00:43:45;;;;;;;9.93;8.10;;;;;;;10.69;70.28;94747.31;4210177;28;20052;-70
2023/10/18 00:45:50;;;;;;;9.98;8.95;;;;;;;10.66;70.95;94751.06;4211123;28;20122;-71
2023/10/18 00:47:53;;;;;;;11.43;9.00;;;;;;;10.73;70.76;94740.78;4193907;28;20044;-68
2023/10/18 00:49:55;;;;;;;9.48;8.48;;;;;;;10.82;70.79;94740.66;4211861;28;20044;-68
2023/10/18 00:51:57;;;;;;;12.63;9.15;;;;;;;10.97;70.78;94740.88;4193351;28;20058;-70
2023/10/18 00:53:59;;;;;;;9.55;8.52;;;;;;;10.97;70.27;94743.47;4211043;28;20410;-70
2023/10/18 00:56:05;;;;;;;11.48;8.77;;;;;;;11.01;70.41;94750.03;4194347;28;20123;-69
2023/10/18 00:58:15;;;;;;;10.57;9.23;;;;;;;10.71;70.42;94756.69;4184332;28;20127;-71
2023/10/18 01:00:24;;;;;;;10.20;9.10;;;;;;;10.30;72.42;94756.47;4208728;28;20123;-71
2023/10/18 01:02:29;;;;;;;11.82;10.63;;;;;;;9.73;74.52;94753.47;4194223;28;20055;-69
2023/10/18 01:04:34;;;;;;;11.55;10.05;;;;;;;9.73;75.14;94754.28;4193516;28;20057;-70
2023/10/18 01:06:36;;;;;;;12.70;10.93;;;;;;;9.74;75.64;94755.09;4193172;28;20052;-69
2023/10/18 01:08:39;;;;;;;12.57;10.23;;;;;;;9.83;75.48;94754.22;4181058;28;20056;-71
2023/10/18 01:10:42;;;;;;;12.18;10.25;;;;;;;9.81;75.60;94750.94;4190844;28;20512;-70
2023/10/18 01:12:45;;;;;;;12.77;10.80;;;;;;;9.93;75.53;94748.88;4211917;28;20044;-70
2023/10/18 01:14:48;;;;;;;13.20;10.37;;;;;;;10.08;75.02;94742.09;4183226;28;20124;-70
2023/10/18 01:16:53;;;;;;;12.52;11.13;;;;;;;10.25;74.61;94741.19;4205914;28;20293;-68
2023/10/18 01:18:56;;;;;;;13.55;10.00;;;;;;;10.40;73.76;94744.09;4175726;28;20060;-70
2023/10/18 01:21:00;;;;;;;13.93;10.80;;;;;;;10.52;73.51;94742.03;4201465;28;20048;-68
2023/10/18 01:23:03;;;;;;;12.32;11.02;;;;;;;10.61;73.04;94748.13;4192366;28;20519;-70
2023/10/18 01:25:09;;;;;;;12.52;11.27;;;;;;;10.69;72.90;94747.31;4193997;28;20075;-70
2023/10/18 01:27:12;;;;;;;13.50;10.80;;;;;;;10.76;72.70;94749.16;4208095;28;20052;-70
2023/10/18 01:29:14;;;;;;;12.40;10.95;;;;;;;10.79;72.03;94759.31;4191151;28;20405;-69
2023/10/18 01:31:16;;;;;;;14.02;11.30;;;;;;;10.82;72.24;94752.94;4170437;28;20103;-69
2023/10/18 01:33:21;;;;;;;12.35;11.05;;;;;;;10.84;72.28;94753.56;4209778;28;20292;-68
2023/10/18 01:35:24;;;;;;;14.13;12.63;;;;;;;10.88;72.07;94748.84;4210898;28;20380;-69
2023/10/18 01:37:29;;;;;;;13.35;11.93;;;;;;;10.90;71.30;94749.50;4194834;28;20053;-71
2023/10/18 01:39:31;;;;;;;15.13;12.55;;;;;;;10.87;71.44;94755.91;4196065;28;20527;-70
2023/10/18 01:41:34;;;;;;;15.00;13.45;;;;;;;10.89;72.11;94751.31;4204203;28;20040;-71
2023/10/18 01:43:37;;;;;;;16.02;12.98;;;;;;;10.95;71.31;94750.69;4205464;28;20052;-67
2023/10/18 01:45:49;;;;;;;15.25;12.80;;;;;;;10.96;70.79;94752.31;4202727;28;20052;-69
2023/10/18 01:47:51;;;;;;;14.27;12.68;;;;;;;10.99;70.39;94767.72;4192192;28;20053;-70
2023/10/18 01:49:55;;;;;;;17.40;13.65;;;;;;;10.99;70.49;94759.03;4206520;28;20040;-67
2023/10/18 01:51:57;;;;;;;14.95;13.25;;;;;;;10.98;70.65;94750.34;4213849;28;20569;-70
2023/10/18 01:54:05;;;;;;;14.75;12.90;;;;;;;11.04;70.79;94751.53;4196687;28;20079;-69
2023/10/18 01:56:07;;;;;;;16.08;12.98;;;;;;;11.07;70.60;94746.75;4196822;28;20124;-70
2023/10/18 01:58:10;;;;;;;15.98;13.85;;;;;;;11.11;70.06;94744.66;4208231;28;20063;-70
2023/10/18 02:00:15;;;;;;;14.57;12.38;;;;;;;11.13;69.81;94752.34;4206289;28;20052;-71
2023/10/18 02:02:17;;;;;;;15.60;13.57;;;;;;;11.16;69.92;94750.22;4194095;28;20048;-71
2023/10/18 02:04:33;;;;;;;14.68;13.10;;;;;;;11.09;69.53;94748.41;4209215;28;20143;-70
2023/10/18 02:06:57;;;;;;;15.38;13.77;;;;;;;11.04;69.74;94754.97;4214359;28;20411;-70
2023/10/18 02:08:59;;;;;;;16.48;13.32;;;;;;;11.05;69.97;94753.97;4195162;28;20095;-70
2023/10/18 02:11:05;;;;;;;16.27;14.25;;;;;;;11.05;69.95;94751.34;4196460;28;20127;-71
2023/10/18 02:13:14;;;;;;;16.02;13.38;;;;;;;11.01;70.09;94750.03;4214372;28;20407;-68
2023/10/18 02:15:16;;;;;;;15.00;13.23;;;;;;;10.98;70.42;94758.22;4195477;28;20051;-69
2023/10/18 02:17:18;;;;;;;15.98;13.73;;;;;;;10.99;70.54;94752.00;4195410;28;20052;-70
2023/10/18 02:19:21;;;;;;;16.90;13.23;;;;;;;10.98;70.53;94746.91;4209070;28;20052;-70
2023/10/18 02:21:25;;;;;;;15.43;13.80;;;;;;;10.94;70.82;94754.25;4195396;28;20047;-69
2023/10/18 02:23:34;;;;;;;19.15;13.98;;;;;;;10.92;70.53;94750.97;4196094;28;20585;-69
2023/10/18 02:25:46;;;;;;;16.00;13.48;;;;;;;10.91;70.74;94753.78;4206707;28;20479;-71
2023/10/18 02:27:51;;;;;;;15.75;13.45;;;;;;;10.88;70.85;94754.91;4186607;28;20212;-68
2023/10/18 02:29:53;;;;;;;15.60;12.90;;;;;;;10.94;71.21;94749.03;4207206;28;20040;-70
2023/10/18 02:32:01;;;;;;;17.80;14.05;;;;;;;10.97;70.74;94746.09;4180157;28;20453;-68
2023/10/18 02:34:05;;;;;;;15.50;13.30;;;;;;;10.97;70.27;94748.72;4208053;28;20056;-69
2023/10/18 02:36:33;;;;;;;14.25;12.75;;;;;;;10.90;69.84;94745.06;4185971;28;20342;-70
2023/10/18 02:38:37;;;;;;;16.05;13.35;;;;;;;10.82;70.49;94745.09;4211478;28;20079;-70
2023/10/18 02:40:40;;;;;;;15.63;13.95;;;;;;;10.82;71.05;94751.13;4216512;28;20052;-72
2023/10/18 02:42:42;;;;;;;15.70;12.65;;;;;;;10.86;71.12;94746.38;4221393;28;20075;-69
2023/10/18 02:44:45;;;;;;;14.90;12.82;;;;;;;10.80;70.46;94754.91;4194590;28;20048;-70
2023/10/18 02:46:48;;;;;;;15.35;12.95;;;;;;;10.84;70.65;94751.81;4195872;28;20102;-70
2023/10/18 02:48:52;;;;;;;15.75;13.23;;;;;;;10.88;71.00;94743.59;4212161;28;20062;-73
2023/10/18 02:50:55;;;;;;;15.10;13.40;;;;;;;10.90;70.81;94744.28;4208167;28;20055;-70
2023/10/18 02:52:57;;;;;;;16.93;14.30;;;;;;;10.95;70.89;94745.44;4213802;28;20554;-70
2023/10/18 02:55:01;;;;;;;15.93;13.60;;;;;;;10.94;71.01;94737.72;4208288;28;20296;-70
2023/10/18 02:57:05;;;;;;;15.30;13.60;;;;;;;10.95;70.93;94740.19;4193184;28;20052;-71
2023/10/18 02:59:07;;;;;;;16.60;13.82;;;;;;;10.98;71.05;94732.00;4206944;28;20044;-70
2023/10/18 03:01:09;;;;;;;14.48;12.60;;;;;;;10.97;70.49;94735.63;4203694;28;20119;-70
2023/10/18 03:03:12;;;;;;;15.45;12.98;;;;;;;10.94;70.33;94738.53;4211071;28;20071;-70
2023/10/18 03:05:18;;;;;;;15.27;13.40;;;;;;;10.95;70.34;94741.97;4212937;28;20075;-71
2023/10/18 03:07:22;;;;;;;15.18;13.48;;;;;;;10.94;70.74;94738.53;4178650;28;20142;-69
2023/10/18 03:11:36;;;;;;;16.00;13.38;;;;;;;10.90;70.46;94739.03;4199038;28;20478;-71
2023/10/18 03:13:38;;;;;;;16.17;12.80;;;;;;;10.85;70.27;94736.88;4197458;28;20357;-70
2023/10/18 03:15:54;;;;;;;17.42;13.70;;;;;;;10.70;70.73;94733.25;4195864;28;20412;-69
2023/10/18 03:18:03;;;;;;;14.90;13.30;;;;;;;10.63;71.27;94730.44;4211052;28;20040;-70
2023/10/18 03:20:23;;;;;;;16.77;13.07;;;;;;;10.68;71.20;94732.59;4213352;28;20420;-69
2023/10/18 03:22:30;;;;;;;14.63;12.75;;;;;;;10.72;71.41;94732.09;4213150;28;20488;-70
2023/10/18 03:24:36;;;;;;;17.00;13.50;;;;;;;10.79;71.34;94732.28;4193805;28;20040;-69
2023/10/18 03:26:40;;;;;;;13.75;11.93;;;;;;;10.75;71.33;94739.63;4212491;28;20044;-70
2023/10/18 03:28:43;;;;;;;13.25;11.50;;;;;;;10.75;71.13;94737.00;4211840;28;20159;-71
2023/10/18 03:30:45;;;;;;;14.48;12.20;;;;;;;10.78;71.07;94733.28;4178495;28;20207;-70
2023/10/18 03:32:50;;;;;;;16.05;11.55;;;;;;;10.82;70.81;94729.34;4213186;28;20052;-71
2023/10/18 03:34:52;;;;;;;12.57;11.05;;;;;;;10.83;70.27;94725.75;4194959;28;20488;-72
2023/10/18 03:36:55;;;;;;;11.70;10.50;;;;;;;10.88;70.64;94728.69;4209132;28;20055;-70
2023/10/18 03:39:00;;;;;;;12.18;10.65;;;;;;;10.92;70.30;94714.28;4181169;28;20057;-70
2023/10/18 03:41:07;;;;;;;14.68;10.88;;;;;;;10.94;70.30;94707.09;4179076;28;20124;-70
2023/10/18 03:43:10;;;;;;;13.38;11.38;;;;;;;10.96;70.16;94713.00;4195259;28;20075;-70
2023/10/18 03:45:20;;;;;;;12.57;11.25;;;;;;;10.97;70.36;94713.81;4210802;28;20052;-68
2023/10/18 03:47:25;;;;;;;13.35;11.18;;;;;;;10.99;70.18;94715.31;4203846;28;20412;-69
2023/10/18 03:49:31;;;;;;;13.52;11.52;;;;;;;10.99;70.29;94712.69;4212723;28;20123;-72
2023/10/18 03:51:36;;;;;;;12.43;10.40;;;;;;;11.00;70.14;94721.38;4213181;28;20117;-70
2023/10/18 03:53:38;;;;;;;13.98;11.30;;;;;;;11.05;69.81;94725.13;4209847;28;20051;-72
2023/10/18 03:55:45;;;;;;;14.32;10.45;;;;;;;11.06;69.67;94718.91;4195222;28;20060;-71
2023/10/18 03:57:50;;;;;;;11.95;9.65;;;;;;;11.09;69.49;94719.56;4194725;28;20048;-73
2023/10/18 03:59:52;;;;;;;12.05;10.50;;;;;;;11.09;69.73;94715.16;4176803;28;20059;-71
2023/10/18 04:04:18;;;;;;;12.63;10.23;;;;;;;11.10;69.34;94702.84;4199912;28;20054;-72
2023/10/18 04:06:21;;;;;;;12.57;10.20;;;;;;;11.10;69.39;94701.06;4211910;28;20060;-72
2023/10/18 04:08:23;;;;;;;10.98;9.88;;;;;;;11.09;69.50;94696.78;4190614;28;20045;-73
2023/10/18 04:10:26;;;;;;;13.85;9.65;;;;;;;11.14;69.58;94702.38;4168238;28;20516;-73
2023/10/18 04:12:28;;;;;;;11.23;9.77;;;;;;;11.14;69.27;94709.41;4190133;28;20045;-71
2023/10/18 04:14:31;;;;;;;11.45;8.55;;;;;;;10.98;69.22;94708.41;4191021;28;20053;-72
2023/10/18 04:16:35;;;;;;;10.00;9.00;;;;;;;10.95;69.77;94705.28;4201927;28;20412;-71
2023/10/18 04:18:41;;;;;;;11.70;9.20;;;;;;;10.91;70.13;94701.38;4209151;28;20135;-70
2023/10/18 04:20:48;;;;;;;11.15;9.20;;;;;;;10.95;69.80;94698.25;4202398;28;20044;-69
2023/10/18 04:22:50;;;;;;;9.75;8.75;;;;;;;10.95;70.04;94702.66;4212371;28;20086;-70
2023/10/18 04:24:54;;;;;;;11.07;8.45;;;;;;;11.01;69.81;94699.41;4188289;28;20508;-71
2023/10/18 04:26:57;;;;;;;11.07;8.57;;;;;;;11.03;69.73;94705.31;4195148;28;20136;-71
2023/10/18 04:29:02;;;;;;;10.90;8.75;;;;;;;10.98;69.77;94702.34;4211812;28;20105;-73
2023/10/18 04:31:12;;;;;;;10.25;8.88;;;;;;;10.80;70.18;94711.16;4198987;28;20548;-71
2023/10/18 04:33:24;;;;;;;11.25;8.90;;;;;;;10.47;71.42;94709.41;4196190;28;20627;-73
2023/10/18 04:35:30;;;;;;;12.40;8.95;;;;;;;10.28;71.78;94708.63;4209219;28;20052;-71
2023/10/18 04:37:32;;;;;;;10.75;9.07;;;;;;;10.32;72.59;94706.56;4208078;28;20054;-69
2023/10/18 04:39:35;;;;;;;12.07;9.45;;;;;;;10.29;72.98;94702.47;4171479;28;20045;-73
2023/10/18 04:41:44;;;;;;;9.55;8.45;;;;;;;10.24;73.04;94702.09;4194689;28;20051;-72
2023/10/18 04:43:46;;;;;;;10.27;9.25;;;;;;;10.24;73.03;94705.53;4193177;28;20147;-71
2023/10/18 04:45:59;;;;;;;13.63;9.98;;;;;;;10.24;72.96;94705.53;4212791;28;20048;-71
2023/10/18 04:48:14;;;;;;;10.85;8.88;;;;;;;10.28;73.13;94710.44;4178800;28;20406;-70
2023/10/18 04:50:29;;;;;;;11.82;9.27;;;;;;;10.37;73.10;94714.78;4200781;28;20231;-72
2023/10/18 04:52:40;;;;;;;10.80;9.35;;;;;;;10.34;73.14;94715.91;4212825;28;20140;-72
2023/10/18 04:54:42;;;;;;;11.75;9.23;;;;;;;10.29;73.22;94717.34;4211864;28;20051;-71
2023/10/18 04:56:45;;;;;;;11.15;8.65;;;;;;;10.32;73.53;94722.28;4210291;28;20478;-71
2023/10/18 04:58:47;;;;;;;13.35;9.35;;;;;;;10.34;73.12;94720.31;4209871;28;20098;-74
2023/10/18 05:01:01;;;;;;;10.05;9.02;;;;;;;10.29;72.71;94733.88;4194326;28;20045;-72
2023/10/18 05:03:07;;;;;;;11.57;9.00;;;;;;;10.07;73.69;94737.84;4204764;28;20436;-71
2023/10/18 05:05:10;;;;;;;9.35;8.32;;;;;;;9.89;74.12;94747.53;4179925;28;20045;-73
2023/10/18 05:07:14;;;;;;;11.27;9.25;;;;;;;9.66;74.54;94755.88;4190017;28;20483;-73
2023/10/18 05:09:18;;;;;;;10.65;9.48;;;;;;;9.46;75.70;94757.00;4202143;28;20048;-72
2023/10/18 05:11:25;;;;;;;9.63;8.70;;;;;;;9.39;76.14;94755.00;4193060;28;20682;-73
2023/10/18 05:13:33;;;;;;;10.25;8.85;;;;;;;9.46;76.27;94763.06;4213987;28;20075;-73
2023/10/18 05:15:36;;;;;;;14.68;10.10;;;;;;;9.58;75.77;94764.47;4196444;28;20131;-73
2023/10/18 05:17:42;;;;;;;9.82;8.82;;;;;;;9.73;75.69;94766.56;4208931;28;20429;-72
2023/10/18 05:19:45;;;;;;;9.38;8.48;;;;;;;9.82;75.35;94766.44;4213619;28;20052;-73
2023/10/18 05:21:47;;;;;;;12.68;9.23;;;;;;;9.97;74.61;94771.94;4197687;28;20127;-70
2023/10/18 05:23:50;;;;;;;9.95;8.10;;;;;;;10.09;74.33;94776.94;4180678;28;20447;-73
2023/10/18 05:26:08;;;;;;;8.65;7.85;;;;;;;10.16;74.08;94786.63;4197483;28;20048;-74
2023/10/18 05:28:24;;;;;;;10.13;7.65;;;;;;;10.27;73.45;94789.97;4214309;28;20052;-72
2023/10/18 05:30:27;;;;;;;9.30;8.40;;;;;;;10.21;73.12;94794.84;4213435;28;20061;-72
2023/10/18 05:32:39;;;;;;;10.30;7.88;;;;;;;10.07;72.95;94794.59;4213479;28;20063;-72
2023/10/18 05:35:00;;;;;;;9.13;7.53;;;;;;;10.01;74.11;94799.47;4212134;28;20044;-73
2023/10/18 05:37:19;;;;;;;11.35;7.70;;;;;;;9.84;73.80;94801.13;4200186;28;20055;-72
2023/10/18 05:41:35;;;;;;;9.27;7.32;;;;;;;9.98;74.50;94794.56;4210715;28;20066;-72
2023/10/18 05:43:37;;;;;;;13.00;7.80;;;;;;;10.18;74.12;94800.41;4211473;28;20051;-71
2023/10/18 05:45:42;;;;;;;8.13;6.90;;;;;;;10.37;73.90;94793.34;4214821;28;20048;-73
2023/10/18 05:47:44;;;;;;;9.25;7.15;;;;;;;10.50;73.00;94785.88;4197109;28;20049;-71
2023/10/18 05:49:50;;;;;;;8.50;7.32;;;;;;;10.62;72.23;94782.00;4193303;28;20048;-72
2023/10/18 05:52:15;;;;;;;9.07;7.50;;;;;;;10.76;72.35;94782.41;4215121;28;20135;-72
2023/10/18 05:54:15;;;;;;;10.00;7.13;;;;;;;10.80;71.39;94783.72;4203685;28;20135;-71
2023/10/18 05:56:22;;;;;;;9.95;7.35;;;;;;;10.79;71.09;94776.81;4205037;28;20136;-73
2023/10/18 05:58:27;;;;;;;10.07;7.95;;;;;;;10.80;71.67;94779.31;4193982;28;20056;-71
2023/10/18 06:00:35;;;;;;;8.40;7.40;;;;;;;10.88;71.38;94780.28;4209028;28;20044;-71
2023/10/18 06:02:38;;;;;;;8.00;7.07;;;;;;;10.91;70.92;94780.00;4196809;28;20427;-71
2023/10/18 06:04:42;;;;;;;8.65;6.85;;;;;;;10.90;71.55;94784.41;4195385;28;20055;-72
2023/10/18 06:06:45;;;;;;;10.00;7.13;;;;;;;10.96;71.44;94782.94;4213091;28;20495;-72
2023/10/18 06:08:49;;;;;;;9.52;7.57;;;;;;;11.00;71.03;94785.09;4185496;28;20104;-72
2023/10/18 06:11:31;;;;;;;10.20;7.20;;;;;;;11.07;70.60;94785.25;4209854;28;20044;-72
2023/10/18 06:13:27;;;;;;;12.88;7.95;;;;;;;11.13;70.58;94786.44;4208718;28;20048;-73
2023/10/18 06:15:34;;;;;;;;;;;;;;;11.21;70.36;94791.72;4208717;28;20097;-72
2023/10/18 06:17:52;;;;;;;11.15;7.38;;;;;;;11.21;70.15;94792.53;4212636;28;19924;-71
2023/10/18 06:19:57;;;;;;;10.80;7.95;;;;;;;11.14;69.79;94785.44;4204134;28;20113;-71
2023/10/18 06:21:59;;;;;;;11.27;7.50;;;;;;;11.16;69.96;94788.72;4209306;28;20510;-72
2023/10/18 06:24:18;;;;;;;11.38;7.95;;;;;;;11.12;70.08;94787.41;4211729;28;20142;-72
2023/10/18 06:26:28;;;;;;;9.18;8.05;;;;;;;11.21;70.58;94789.91;4203407;28;20051;-71
2023/10/18 06:28:31;;;;;;;12.63;8.20;;;;;;;11.23;70.21;94780.06;4212589;28;20054;-73
2023/10/18 06:30:39;;;;;;;9.82;8.50;;;;;;;11.32;70.15;94799.25;4197084;28;20091;-72
2023/10/18 06:32:43;;;;;;;14.10;8.18;;;;;;;11.36;70.11;94789.28;4184869;28;20106;-74
2023/10/18 06:34:45;;;;;;;9.23;8.00;;;;;;;11.43;69.66;94792.88;4215135;28;20052;-75
2023/10/18 06:36:49;;;;;;;14.48;8.20;;;;;;;11.21;69.71;94796.97;4213511;28;20054;-74
2023/10/18 06:38:52;;;;;;;8.73;7.82;;;;;;;11.09;70.04;94801.66;4211803;28;20048;-72
2023/10/18 06:43:08;;;;;;;11.10;8.63;;;;;;;11.06;70.57;94804.63;4213772;28;20044;-73
2023/10/18 06:45:15;;;;;;;13.40;8.25;;;;;;;11.05;70.69;94805.56;4213114;28;20059;-72
2023/10/18 06:47:18;;;;;;;9.27;7.80;;;;;;;11.21;70.67;94802.19;4214976;28;20070;-73
2023/10/18 06:49:20;;;;;;;11.70;8.00;;;;;;;11.00;70.06;94806.06;4213001;28;20095;-72
2023/10/18 06:51:33;;;;;;;9.60;7.82;;;;;;;11.05;70.51;94798.53;4196565;28;20665;-72
2023/10/18 06:53:38;;;;;;;9.55;7.47;;;;;;;11.13;70.25;94800.38;4212431;28;20453;-73
2023/10/18 06:55:55;;;;;;;10.52;7.38;;;;;;;11.26;70.08;94805.16;4196402;28;20472;-73
2023/10/18 07:00:30;;;;;;;9.20;7.55;;;;;;;11.54;68.62;94805.69;4198671;28;20049;-74
2023/10/18 07:02:32;;;;;;;13.07;7.70;;;;;;;11.57;68.66;94805.38;4213394;28;20078;-72
2023/10/18 07:04:46;;;;;;;13.35;7.85;;;;;;;11.32;69.05;94809.75;4213840;28;20070;-72
2023/10/18 07:06:49;;;;;;;9.02;7.50;;;;;;;11.00;69.83;94816.53;4199205;28;20055;-73
2023/10/18 07:08:52;;;;;;;9.63;8.05;;;;;;;10.84;70.32;94819.94;4196353;28;20497;-73
2023/10/18 07:10:54;;;;;;;10.70;8.27;;;;;;;10.62;71.00;94820.47;4213297;28;20083;-74
2023/10/18 07:13:33;;;;;;;12.10;8.30;;;;;;;10.62;71.69;94816.06;4196254;28;20097;-71
2023/10/18 07:15:34;;;;;;;9.88;7.80;;;;;;;10.66;71.31;94820.00;4213301;28;20051;-73
2023/10/18 07:17:38;;;;;;;11.27;8.38;;;;;;;10.50;71.89;94822.56;4195944;28;20055;-74
2023/10/18 07:19:58;;;;;;;11.80;8.23;;;;;;;10.64;71.50;94819.34;4192215;28;20064;-73
2023/10/18 07:22:06;;;;;;;9.85;8.07;;;;;;;10.52;71.63;94825.00;4202778;28;20358;-72
2023/10/18 07:24:11;;;;;;;10.57;7.97;;;;;;;10.54;71.95;94823.88;4194945;28;20067;-72
2023/10/18 07:26:14;;;;;;;10.30;8.97;;;;;;;10.61;71.73;94819.66;4209170;28;20131;-72
2023/10/18 07:28:21;;;;;;;11.25;9.02;;;;;;;10.86;71.48;94817.13;4212758;28;20410;-71
2023/10/18 07:30:37;;;;;;;10.48;7.63;;;;;;;11.10;71.14;94819.06;4196458;28;20087;-76
2023/10/18 07:32:47;;;;;;;10.00;8.52;;;;;;;11.10;70.11;94820.81;4187051;28;20058;-75
2023/10/18 07:34:57;;;;;;;11.88;9.48;;;;;;;11.27;70.01;94818.09;4212258;28;20147;-74
2023/10/18 07:37:00;;;;;;;11.48;8.30;;;;;;;11.13;69.77;94816.09;4213157;28;20539;-72
2023/10/18 07:39:04;;;;;;;;;;;;;;;11.24;69.53;94807.94;4213446;28;20052;-72
2023/10/18 07:41:08;;;;;;;12.10;8.68;;;;;;;10.97;70.10;94806.38;4206559;28;19932;-72
2023/10/18 07:43:15;;;;;;;11.30;7.68;;;;;;;11.09;70.08;94814.78;4208155;28;20043;-74
2023/10/18 07:45:21;;;;;;;10.93;8.00;;;;;;;11.24;69.80;94814.97;4200080;28;20048;-72
2023/10/18 07:47:31;;;;;;;9.82;8.13;;;;;;;11.47;69.52;94816.00;4204634;28;20135;-72
2023/10/18 07:49:33;;;;;;;13.88;7.90;;;;;;;11.64;68.74;94802.94;4203897;28;20064;-72
2023/10/18 07:51:43;;;;;;;11.88;8.35;;;;;;;11.77;67.75;94805.06;4211034;28;20484;-72
2023/10/18 07:53:45;;;;;;;10.75;8.40;;;;;;;11.90;67.64;94804.59;4194739;28;20105;-73
2023/10/18 07:55:53;;;;;;;11.63;8.15;;;;;;;11.73;67.17;94798.50;4195699;28;20083;-71
2023/10/18 07:57:56;;;;;;;13.00;8.73;;;;;;;11.77;67.72;94802.44;4195240;28;20097;-73
2023/10/18 08:00:21;;;;;;;13.53;8.87;;;;;;;11.70;67.81;94804.88;4192847;28;20412;-74
2023/10/18 08:02:23;;;;;;;19.02;9.32;;;;;;;11.53;68.31;94808.47;4204582;28;20098;-72
2023/10/18 08:04:27;;;;;;;11.23;8.90;;;;;;;11.34;68.79;94810.41;4202729;28;20056;-73
2023/10/18 08:06:39;;;;;;;12.52;9.38;;;;;;;11.27;69.01;94806.78;4192864;28;20135;-74
2023/10/18 08:08:42;;;;;;;10.90;8.60;;;;;;;11.14;69.23;94807.25;4170844;28;20095;-73
2023/10/18 08:10:46;;;;;;;11.93;9.18;;;;;;;11.09;69.43;94813.97;4203427;28;20052;-73
2023/10/18 08:13:04;;;;;;;12.05;9.05;;;;;;;11.32;69.50;94816.81;4192604;28;20049;-74
2023/10/18 08:15:13;;;;;;;12.45;8.80;;;;;;;11.58;68.35;94811.44;4179870;28;20159;-72
2023/10/18 08:17:29;;;;;;;12.00;8.80;;;;;;;11.84;68.16;94806.03;4180098;28;20048;-73
2023/10/18 08:19:44;;;;;;;11.50;9.57;;;;;;;12.08;66.72;94815.75;4212763;28;20214;-72
2023/10/18 08:21:57;;;;;;;10.23;8.43;;;;;;;12.02;66.23;94813.78;4205062;28;20044;-72
2023/10/18 08:24:07;;;;;;;11.30;8.18;;;;;;;12.14;66.53;94816.91;4209919;28;20389;-72
2023/10/18 08:26:12;;;;;;;12.98;8.98;;;;;;;12.35;65.94;94811.13;4199199;28;20056;-72
2023/10/18 08:28:14;;;;;;;11.23;9.65;;;;;;;12.38;66.02;94816.03;4169683;28;20670;-71
2023/10/18 08:32:37;;;;;;;9.30;7.57;;;;;;;12.20;65.07;94813.59;4212429;28;20048;-70
2023/10/18 08:34:39;;;;;;;10.88;7.75;;;;;;;12.19;65.49;94812.78;4173109;28;20127;-72
2023/10/18 08:36:46;;;;;;;9.38;8.13;;;;;;;12.35;65.73;94816.38;4163710;28;20129;-72
2023/10/18 08:38:48;;;;;;;9.88;8.23;;;;;;;12.17;65.42;94821.81;4192996;28;20464;-71
2023/10/18 08:40:56;;;;;;;10.50;8.13;;;;;;;12.23;65.42;94819.34;4212603;28;20131;-72
2023/10/18 08:43:15;;;;;;;10.45;7.82;;;;;;;12.39;65.85;94812.41;4186618;28;20045;-73
2023/10/18 08:45:23;;;;;;;9.25;7.53;;;;;;;12.41;64.71;94820.94;4194284;28;20106;-72
2023/10/18 08:47:39;;;;;;;8.82;7.20;;;;;;;12.07;64.96;94819.38;4182281;28;20107;-73
2023/10/18 08:49:53;;;;;;;11.35;8.05;;;;;;;12.22;65.91;94827.41;4194122;28;20063;-76
2023/10/18 08:52:04;;;;;;;8.65;6.72;;;;;;;12.42;65.19;94823.41;4201041;28;20053;-71
2023/10/18 08:54:17;;;;;;;8.07;6.28;;;;;;;12.58;63.88;94817.28;4202788;28;20044;-73
2023/10/18 08:56:25;;;;;;;10.10;7.00;;;;;;;12.69;64.41;94824.00;4187601;28;20583;-74
2023/10/18 08:58:28;;;;;;;10.65;7.03;;;;;;;12.79;63.61;94826.44;4193014;28;20172;-74
2023/10/18 09:02:39;;;;;;;9.70;6.72;;;;;;;13.04;63.08;94824.56;4219879;28;20054;-73
2023/10/18 09:04:44;;;;;;;8.07;6.80;;;;;;;13.16;62.82;94825.78;4195007;28;20044;-74
2023/10/18 09:06:46;;;;;;;7.28;6.35;;;;;;;13.21;62.54;94825.31;4184051;28;20131;-75
2023/10/18 09:09:04;;;;;;;7.95;6.63;;;;;;;13.33;61.98;94823.94;4212233;28;20047;-75
2023/10/18 09:11:20;;;;;;;7.47;6.40;;;;;;;13.37;61.44;94830.50;4186734;28;20056;-75
2023/10/18 09:15:35;;;;;;;9.55;7.82;;;;;;;13.50;61.49;94827.28;4192872;28;20532;-72
2023/10/18 09:17:58;;;;;;;9.65;6.88;;;;;;;13.61;61.27;94837.41;4188377;28;20056;-73
2023/10/18 09:20:04;;;;;;;10.88;8.07;;;;;;;13.67;60.88;94841.19;4212459;28;20505;-74
2023/10/18 09:22:07;;;;;;;10.85;6.55;;;;;;;13.58;60.22;94840.41;4211740;28;20052;-73
2023/10/18 09:24:09;;;;;;;13.43;7.00;;;;;;;13.54;60.65;94841.75;4177161;28;20291;-73
2023/10/18 09:26:18;;;;;;;8.98;6.88;;;;;;;13.60;60.76;94843.69;4195016;28;20078;-74
2023/10/18 09:28:25;;;;;;;7.65;6.75;;;;;;;13.68;60.65;94840.16;4210158;28;20052;-75
2023/10/18 09:30:28;;;;;;;8.38;6.53;;;;;;;13.77;60.52;94841.78;4199787;28;20060;-76
2023/10/18 09:32:34;;;;;;;8.90;6.78;;;;;;;13.79;60.29;94837.16;4193870;28;20052;-75
2023/10/18 09:34:42;;;;;;;9.38;7.00;;;;;;;13.86;59.88;94830.19;4189072;28;20127;-74
2023/10/18 09:36:54;;;;;;;8.05;7.18;;;;;;;13.83;60.22;94827.91;4190759;28;20052;-73
2023/10/18 09:38:57;;;;;;;8.95;6.50;;;;;;;13.84;60.18;94823.47;4176343;28;20119;-73
2023/10/18 09:40:59;;;;;;;13.00;8.68;;;;;;;13.87;60.76;94823.94;4213169;28;20130;-74
2023/10/18 09:43:03;;;;;;;13.85;8.93;;;;;;;13.88;60.89;94819.47;4194239;28;20048;-75
2023/10/18 09:45:08;;;;;;;8.27;7.00;;;;;;;13.97;60.37;94820.22;4211149;28;20052;-74
2023/10/18 09:47:11;;;;;;;12.25;8.48;;;;;;;14.05;60.21;94817.53;4211590;28;20048;-76
2023/10/18 09:49:21;;;;;;;8.30;7.00;;;;;;;14.08;59.59;94810.09;4212691;28;20081;-73
2023/10/18 09:51:23;;;;;;;8.90;6.82;;;;;;;14.11;59.38;94811.53;4207649;28;20052;-74
2023/10/18 09:53:26;;;;;;;7.38;6.25;;;;;;;14.14;59.32;94812.00;4177951;28;20049;-74
2023/10/18 09:55:29;;;;;;;8.68;6.35;;;;;;;14.13;59.57;94806.91;4211335;28;20044;-74
2023/10/18 09:57:35;;;;;;;9.77;6.97;;;;;;;14.17;59.39;94810.81;4178681;28;20049;-74
2023/10/18 09:59:47;;;;;;;9.02;6.65;;;;;;;14.24;59.13;94805.66;4194851;28;20048;-74
2023/10/18 10:02:00;;;;;;;8.60;7.32;;;;;;;14.27;58.87;94803.50;4216005;28;20055;-73
2023/10/18 10:04:04;;;;;;;12.88;7.03;;;;;;;14.37;58.98;94800.63;4207513;28;20044;-74
2023/10/18 10:06:06;;;;;;;10.05;6.45;;;;;;;14.41;58.30;94793.16;4211576;28;20465;-73